sensor_id;sensor_type;location;lat;lon;timestamp;pressure;altitude;pressure_sealevel;temperature;humidity
71059;BME280;70265;47.576;19.270;2023-07-13T00:00:53;98706.47;;;22.90;83.15
71059;BME280;70265;47.576;19.270;2023-07-13T00:01:59;98707.53;;;22.89;83.53
71059;BME280;70265;47.576;19.270;2023-07-13T00:03:01;98698.91;;;22.87;83.71
71059;BME280;70265;47.576;19.270;2023-07-13T00:04:05;98699.63;;;22.83;84.21
71059;BME280;70265;47.576;19.270;2023-07-13T00:05:07;98702.19;;;22.77;84.87
71059;BME280;70265;47.576;19.270;2023-07-13T00:06:13;98702.19;;;22.77;85.66
71059;BME280;70265;47.576;19.270;2023-07-13T00:07:14;98711.03;;;22.78;86.17
71059;BME280;70265;47.576;19.270;2023-07-13T00:08:20;98694.72;;;22.79;86.20
71059;BME280;70265;47.576;19.270;2023-07-13T00:09:22;98705.56;;;22.85;86.41
71059;BME280;70265;47.576;19.270;2023-07-13T00:10:25;98706.38;;;22.85;87.42
71059;BME280;70265;47.576;19.270;2023-07-13T00:11:27;98706.94;;;22.87;87.52
71059;BME280;70265;47.576;19.270;2023-07-13T00:12:34;98703.91;;;22.83;88.54
71059;BME280;70265;47.576;19.270;2023-07-13T00:13:36;98701.59;;;22.64;91.19
71059;BME280;70265;47.576;19.270;2023-07-13T00:14:40;98695.06;;;22.60;90.55
71059;BME280;70265;47.576;19.270;2023-07-13T00:15:44;98685.19;;;22.60;90.66
71059;BME280;70265;47.576;19.270;2023-07-13T00:16:50;98684.03;;;22.56;89.56
71059;BME280;70265;47.576;19.270;2023-07-13T00:17:54;98693.56;;;22.52;90.26
71059;BME280;70265;47.576;19.270;2023-07-13T00:18:58;98703.13;;;22.48;90.37
71059;BME280;70265;47.576;19.270;2023-07-13T00:20:01;98699.50;;;22.43;90.51
71059;BME280;70265;47.576;19.270;2023-07-13T00:21:05;98699.13;;;22.39;91.20
71059;BME280;70265;47.576;19.270;2023-07-13T00:22:06;98692.06;;;22.33;90.71
71059;BME280;70265;47.576;19.270;2023-07-13T00:23:10;98687.41;;;22.28;91.66
71059;BME280;70265;47.576;19.270;2023-07-13T00:24:13;98673.69;;;22.25;91.31
71059;BME280;70265;47.576;19.270;2023-07-13T00:25:19;98667.78;;;22.23;92.03
71059;BME280;70265;47.576;19.270;2023-07-13T00:26:23;98655.56;;;22.15;93.24
71059;BME280;70265;47.576;19.270;2023-07-13T00:27:27;98642.91;;;22.11;94.07
71059;BME280;70265;47.576;19.270;2023-07-13T00:28:30;98632.69;;;22.08;95.67
71059;BME280;70265;47.576;19.270;2023-07-13T00:29:40;98633.59;;;22.02;96.93
71059;BME280;70265;47.576;19.270;2023-07-13T00:30:41;98625.34;;;21.92;98.00
71059;BME280;70265;47.576;19.270;2023-07-13T00:31:45;98617.34;;;21.92;97.20
71059;BME280;70265;47.576;19.270;2023-07-13T00:32:46;98615.25;;;21.94;97.60
71059;BME280;70265;47.576;19.270;2023-07-13T00:33:56;98611.19;;;21.91;98.64
71059;BME280;70265;47.576;19.270;2023-07-13T00:34:57;98603.72;;;21.81;98.76
71059;BME280;70265;47.576;19.270;2023-07-13T00:36:05;98596.31;;;21.83;99.68
71059;BME280;70265;47.576;19.270;2023-07-13T00:37:07;98597.66;;;21.63;100.00
71059;BME280;70265;47.576;19.270;2023-07-13T00:38:13;98597.66;;;21.63;100.00
71059;BME280;70265;47.576;19.270;2023-07-13T00:39:14;98584.31;;;21.63;100.00
71059;BME280;70265;47.576;19.270;2023-07-13T00:40:19;98580.78;;;21.39;100.00
71059;BME280;70265;47.576;19.270;2023-07-13T00:41:23;98573.50;;;21.46;100.00
71059;BME280;70265;47.576;19.270;2023-07-13T00:42:26;98559.66;;;21.38;100.00
71059;BME280;70265;47.576;19.270;2023-07-13T00:43:29;98554.72;;;21.11;100.00
71059;BME280;70265;47.576;19.270;2023-07-13T00:44:33;98543.50;;;21.03;100.00
71059;BME280;70265;47.576;19.270;2023-07-13T00:47:10;98542.00;;;21.25;100.00
71059;BME280;70265;47.576;19.270;2023-07-13T00:48:11;98533.31;;;21.29;100.00
71059;BME280;70265;47.576;19.270;2023-07-13T00:49:21;98520.88;;;21.23;100.00
71059;BME280;70265;47.576;19.270;2023-07-13T00:50:23;98518.03;;;21.07;100.00
71059;BME280;70265;47.576;19.270;2023-07-13T00:51:32;98509.19;;;20.95;100.00
71059;BME280;70265;47.576;19.270;2023-07-13T00:52:39;98513.97;;;21.04;100.00
71059;BME280;70265;47.576;19.270;2023-07-13T00:53:44;98515.28;;;21.13;100.00
71059;BME280;70265;47.576;19.270;2023-07-13T00:54:46;98519.84;;;21.24;100.00
71059;BME280;70265;47.576;19.270;2023-07-13T00:55:51;98536.25;;;21.40;100.00
71059;BME280;70265;47.576;19.270;2023-07-13T00:56:55;98510.91;;;21.19;100.00
71059;BME280;70265;47.576;19.270;2023-07-13T00:58:01;98513.03;;;20.99;100.00
71059;BME280;70265;47.576;19.270;2023-07-13T00:59:07;98512.16;;;21.16;100.00
71059;BME280;70265;47.576;19.270;2023-07-13T01:00:14;98515.44;;;21.30;100.00
71059;BME280;70265;47.576;19.270;2023-07-13T01:01:17;98511.63;;;21.26;100.00
71059;BME280;70265;47.576;19.270;2023-07-13T01:02:22;98507.91;;;21.27;100.00
71059;BME280;70265;47.576;19.270;2023-07-13T01:03:23;98504.63;;;21.13;100.00
71059;BME280;70265;47.576;19.270;2023-07-13T01:04:32;98497.44;;;21.14;100.00
71059;BME280;70265;47.576;19.270;2023-07-13T01:05:35;98494.19;;;21.23;100.00
71059;BME280;70265;47.576;19.270;2023-07-13T01:06:40;98489.00;;;21.28;100.00
71059;BME280;70265;47.576;19.270;2023-07-13T01:07:45;98497.56;;;21.30;100.00
71059;BME280;70265;47.576;19.270;2023-07-13T01:08:49;98496.31;;;21.33;100.00
71059;BME280;70265;47.576;19.270;2023-07-13T01:09:54;98496.31;;;21.33;100.00
71059;BME280;70265;47.576;19.270;2023-07-13T01:10:58;98485.97;;;21.37;100.00
71059;BME280;70265;47.576;19.270;2023-07-13T01:12:00;98478.09;;;21.42;100.00
71059;BME280;70265;47.576;19.270;2023-07-13T01:13:03;98476.81;;;21.44;100.00
71059;BME280;70265;47.576;19.270;2023-07-13T01:14:14;98470.44;;;21.45;100.00
71059;BME280;70265;47.576;19.270;2023-07-13T01:15:37;98467.78;;;21.45;100.00
71059;BME280;70265;47.576;19.270;2023-07-13T01:16:40;98470.31;;;21.40;100.00
71059;BME280;70265;47.576;19.270;2023-07-13T01:17:45;98486.13;;;21.42;100.00
71059;BME280;70265;47.576;19.270;2023-07-13T01:18:46;98483.09;;;21.38;100.00
71059;BME280;70265;47.576;19.270;2023-07-13T01:19:50;98483.09;;;21.38;100.00
71059;BME280;70265;47.576;19.270;2023-07-13T01:20:58;98486.31;;;21.40;100.00
71059;BME280;70265;47.576;19.270;2023-07-13T01:22:00;98492.25;;;21.42;100.00
71059;BME280;70265;47.576;19.270;2023-07-13T01:23:05;98486.31;;;21.40;100.00
71059;BME280;70265;47.576;19.270;2023-07-13T01:24:08;98495.41;;;21.39;100.00
71059;BME280;70265;47.576;19.270;2023-07-13T01:25:12;98491.66;;;21.40;100.00
71059;BME280;70265;47.576;19.270;2023-07-13T01:26:13;98491.66;;;21.40;100.00
71059;BME280;70265;47.576;19.270;2023-07-13T01:27:21;98490.88;;;21.40;100.00
71059;BME280;70265;47.576;19.270;2023-07-13T01:28:25;98494.34;;;21.40;100.00
71059;BME280;70265;47.576;19.270;2023-07-13T01:29:32;98492.59;;;21.34;100.00
71059;BME280;70265;47.576;19.270;2023-07-13T01:30:33;98498.41;;;21.31;100.00
71059;BME280;70265;47.576;19.270;2023-07-13T01:31:39;98490.28;;;21.26;100.00
71059;BME280;70265;47.576;19.270;2023-07-13T01:32:40;98491.06;;;21.26;100.00
71059;BME280;70265;47.576;19.270;2023-07-13T01:33:45;98492.25;;;21.19;100.00
71059;BME280;70265;47.576;19.270;2023-07-13T01:34:49;98482.78;;;21.05;100.00
71059;BME280;70265;47.576;19.270;2023-07-13T01:36:05;98484.41;;;21.06;100.00
71059;BME280;70265;47.576;19.270;2023-07-13T01:37:06;98476.84;;;21.03;100.00
71059;BME280;70265;47.576;19.270;2023-07-13T01:38:13;98473.16;;;21.04;100.00
71059;BME280;70265;47.576;19.270;2023-07-13T01:39:14;98483.81;;;21.04;100.00
71059;BME280;70265;47.576;19.270;2023-07-13T01:40:19;98482.63;;;21.00;100.00
71059;BME280;70265;47.576;19.270;2023-07-13T01:41:20;98485.75;;;20.97;100.00
71059;BME280;70265;47.576;19.270;2023-07-13T01:42:24;98484.59;;;20.93;100.00
71059;BME280;70265;47.576;19.270;2023-07-13T01:43:25;98479.63;;;20.96;100.00
71059;BME280;70265;47.576;19.270;2023-07-13T01:44:29;98481.09;;;20.80;100.00
71059;BME280;70265;47.576;19.270;2023-07-13T01:45:31;98481.28;;;20.67;100.00
71059;BME280;70265;47.576;19.270;2023-07-13T01:46:34;98474.97;;;20.62;100.00
71059;BME280;70265;47.576;19.270;2023-07-13T01:47:35;98474.63;;;20.58;100.00
71059;BME280;70265;47.576;19.270;2023-07-13T01:48:39;98471.78;;;20.42;100.00
71059;BME280;70265;47.576;19.270;2023-07-13T01:49:40;98472.91;;;20.34;100.00
71059;BME280;70265;47.576;19.270;2023-07-13T01:50:47;98473.78;;;20.46;100.00
71059;BME280;70265;47.576;19.270;2023-07-13T01:51:51;98471.84;;;20.53;100.00
71059;BME280;70265;47.576;19.270;2023-07-13T01:52:57;98471.94;;;20.58;100.00
71059;BME280;70265;47.576;19.270;2023-07-13T01:53:59;98476.84;;;20.61;100.00
71059;BME280;70265;47.576;19.270;2023-07-13T01:55:04;98469.66;;;20.62;100.00
71059;BME280;70265;47.576;19.270;2023-07-13T01:56:06;98474.63;;;20.58;100.00
71059;BME280;70265;47.576;19.270;2023-07-13T01:57:10;98476.72;;;20.56;100.00
71059;BME280;70265;47.576;19.270;2023-07-13T01:58:11;98478.72;;;20.61;100.00
71059;BME280;70265;47.576;19.270;2023-07-13T01:59:15;98479.94;;;20.58;100.00
71059;BME280;70265;47.576;19.270;2023-07-13T02:00:17;98480.19;;;20.57;100.00
71059;BME280;70265;47.576;19.270;2023-07-13T02:01:21;98478.72;;;20.43;100.00
71059;BME280;70265;47.576;19.270;2023-07-13T02:02:23;98474.72;;;19.97;100.00
71059;BME280;70265;47.576;19.270;2023-07-13T02:03:26;98478.16;;;19.86;100.00
71059;BME280;70265;47.576;19.270;2023-07-13T02:04:28;98475.13;;;19.83;100.00
71059;BME280;70265;47.576;19.270;2023-07-13T02:05:31;98471.03;;;19.80;100.00
71059;BME280;70265;47.576;19.270;2023-07-13T02:06:36;98472.00;;;19.86;100.00
71059;BME280;70265;47.576;19.270;2023-07-13T02:07:44;98472.00;;;19.86;100.00
71059;BME280;70265;47.576;19.270;2023-07-13T02:08:45;98463.03;;;19.80;100.00
71059;BME280;70265;47.576;19.270;2023-07-13T02:09:49;98463.72;;;19.75;100.00
71059;BME280;70265;47.576;19.270;2023-07-13T02:10:52;98464.75;;;19.74;100.00
71059;BME280;70265;47.576;19.270;2023-07-13T02:11:55;98462.25;;;19.79;100.00
71059;BME280;70265;47.576;19.270;2023-07-13T02:12:57;98465.06;;;19.85;100.00
71059;BME280;70265;47.576;19.270;2023-07-13T02:14:01;98463.13;;;19.92;100.00
71059;BME280;70265;47.576;19.270;2023-07-13T02:15:04;98460.38;;;19.98;100.00
71059;BME280;70265;47.576;19.270;2023-07-13T02:16:10;98457.91;;;20.03;100.00
71059;BME280;70265;47.576;19.270;2023-07-13T02:17:14;98453.72;;;20.07;100.00
71059;BME280;70265;47.576;19.270;2023-07-13T02:18:20;98455.00;;;20.05;100.00
71059;BME280;70265;47.576;19.270;2023-07-13T02:19:21;98459.06;;;20.07;100.00
71059;BME280;70265;47.576;19.270;2023-07-13T02:20:25;98460.31;;;20.05;100.00
71059;BME280;70265;47.576;19.270;2023-07-13T02:21:27;98456.63;;;20.06;100.00
71059;BME280;70265;47.576;19.270;2023-07-13T02:22:31;98454.53;;;20.08;100.00
71059;BME280;70265;47.576;19.270;2023-07-13T02:23:35;98456.34;;;20.14;100.00
71059;BME280;70265;47.576;19.270;2023-07-13T02:24:39;98456.09;;;20.15;100.00
71059;BME280;70265;47.576;19.270;2023-07-13T02:25:40;98454.00;;;20.17;99.94
71059;BME280;70265;47.576;19.270;2023-07-13T02:26:45;98460.88;;;20.25;97.97
71059;BME280;70265;47.576;19.270;2023-07-13T02:27:46;98447.97;;;20.28;97.19
71059;BME280;70265;47.576;19.270;2023-07-13T02:28:47;98455.56;;;20.25;97.22
71059;BME280;70265;47.576;19.270;2023-07-13T02:29:51;98454.09;;;20.29;96.51
71059;BME280;70265;47.576;19.270;2023-07-13T02:30:52;98458.16;;;20.31;96.20
71059;BME280;70265;47.576;19.270;2023-07-13T02:31:56;98456.31;;;20.32;95.79
71059;BME280;70265;47.576;19.270;2023-07-13T02:32:57;98453.53;;;20.27;97.78
71059;BME280;70265;47.576;19.270;2023-07-13T02:34:02;98456.19;;;20.27;97.53
71059;BME280;70265;47.576;19.270;2023-07-13T02:35:05;98454.75;;;20.24;98.55
71059;BME280;70265;47.576;19.270;2023-07-13T02:36:09;98456.47;;;20.19;99.12
71059;BME280;70265;47.576;19.270;2023-07-13T02:37:11;98454.25;;;20.16;100.00
71059;BME280;70265;47.576;19.270;2023-07-13T02:38:14;98455.88;;;20.17;98.82
71059;BME280;70265;47.576;19.270;2023-07-13T02:39:18;98455.97;;;20.10;99.75
71059;BME280;70265;47.576;19.270;2023-07-13T02:40:22;98461.50;;;20.09;99.15
71059;BME280;70265;47.576;19.270;2023-07-13T02:41:23;98458.72;;;20.04;99.11
71059;BME280;70265;47.576;19.270;2023-07-13T02:42:27;98471.41;;;20.02;99.20
71059;BME280;70265;47.576;19.270;2023-07-13T02:43:28;98481.78;;;19.92;100.00
71059;BME280;70265;47.576;19.270;2023-07-13T02:44:32;98480.50;;;19.94;100.00
71059;BME280;70265;47.576;19.270;2023-07-13T02:45:33;98482.97;;;19.96;100.00
71059;BME280;70265;47.576;19.270;2023-07-13T02:46:37;98474.34;;;19.94;100.00
71059;BME280;70265;47.576;19.270;2023-07-13T02:47:40;98477.03;;;19.94;100.00
71059;BME280;70265;47.576;19.270;2023-07-13T02:48:44;98475.88;;;19.90;100.00
71059;BME280;70265;47.576;19.270;2023-07-13T02:49:45;98465.22;;;19.90;100.00
71059;BME280;70265;47.576;19.270;2023-07-13T02:50:49;98467.06;;;19.89;100.00
71059;BME280;70265;47.576;19.270;2023-07-13T02:51:51;98460.47;;;19.92;100.00
71059;BME280;70265;47.576;19.270;2023-07-13T02:52:55;98464.59;;;19.88;100.00
71059;BME280;70265;47.576;19.270;2023-07-13T02:53:56;98460.47;;;19.92;100.00
71059;BME280;70265;47.576;19.270;2023-07-13T02:55:03;98463.50;;;19.95;100.00
71059;BME280;70265;47.576;19.270;2023-07-13T02:56:06;98463.28;;;19.97;100.00
71059;BME280;70265;47.576;19.270;2023-07-13T02:57:10;98469.66;;;19.96;100.00
71059;BME280;70265;47.576;19.270;2023-07-13T02:58:14;98478.66;;;19.95;100.00
71059;BME280;70265;47.576;19.270;2023-07-13T02:59:19;98473.41;;;19.88;100.00
71059;BME280;70265;47.576;19.270;2023-07-13T03:00:20;98476.44;;;19.92;100.00
71059;BME280;70265;47.576;19.270;2023-07-13T03:01:24;98478.22;;;19.98;100.00
71059;BME280;70265;47.576;19.270;2023-07-13T03:02:26;98476.00;;;19.95;100.00
71059;BME280;70265;47.576;19.270;2023-07-13T03:03:30;98493.16;;;19.99;100.00
71059;BME280;70265;47.576;19.270;2023-07-13T03:04:31;98483.69;;;20.03;100.00
71059;BME280;70265;47.576;19.270;2023-07-13T03:05:36;98492.63;;;20.08;100.00
71059;BME280;70265;47.576;19.270;2023-07-13T03:06:37;98490.50;;;20.17;100.00
71059;BME280;70265;47.576;19.270;2023-07-13T03:07:39;98488.56;;;20.06;100.00
71059;BME280;70265;47.576;19.270;2023-07-13T03:08:43;98486.94;;;20.05;100.00
71059;BME280;70265;47.576;19.270;2023-07-13T03:09:45;98482.81;;;20.09;100.00
71059;BME280;70265;47.576;19.270;2023-07-13T03:10:48;98486.38;;;20.03;100.00
71059;BME280;70265;47.576;19.270;2023-07-13T03:11:53;98481.69;;;19.98;100.00
71059;BME280;70265;47.576;19.270;2023-07-13T03:12:55;98493.81;;;19.94;100.00
71059;BME280;70265;47.576;19.270;2023-07-13T03:13:58;98496.09;;;19.91;100.00
71059;BME280;70265;47.576;19.270;2023-07-13T03:15:01;98496.53;;;19.88;100.00
71059;BME280;70265;47.576;19.270;2023-07-13T03:16:05;98494.06;;;19.93;100.00
71059;BME280;70265;47.576;19.270;2023-07-13T03:17:09;98507.50;;;19.98;100.00
71059;BME280;70265;47.576;19.270;2023-07-13T03:18:13;98501.72;;;20.01;100.00
71059;BME280;70265;47.576;19.270;2023-07-13T03:19:15;98501.97;;;19.99;100.00
71059;BME280;70265;47.576;19.270;2023-07-13T03:20:21;98501.31;;;20.04;100.00
71059;BME280;70265;47.576;19.270;2023-07-13T03:21:23;98505.22;;;20.01;100.00
71059;BME280;70265;47.576;19.270;2023-07-13T03:22:27;98504.56;;;20.06;100.00
71059;BME280;70265;47.576;19.270;2023-07-13T03:23:28;98502.25;;;20.09;100.00
71059;BME280;70265;47.576;19.270;2023-07-13T03:24:32;98499.97;;;20.13;100.00
71059;BME280;70265;47.576;19.270;2023-07-13T03:25:34;98494.28;;;20.09;100.00
71059;BME280;70265;47.576;19.270;2023-07-13T03:26:40;98489.84;;;20.03;100.00
71059;BME280;70265;47.576;19.270;2023-07-13T03:27:41;98493.91;;;20.06;100.00
71059;BME280;70265;47.576;19.270;2023-07-13T03:28:45;98495.91;;;20.10;100.00
71059;BME280;70265;47.576;19.270;2023-07-13T03:29:46;98490.59;;;20.10;100.00
71059;BME280;70265;47.576;19.270;2023-07-13T03:30:59;98491.97;;;20.13;100.00
71059;BME280;70265;47.576;19.270;2023-07-13T03:32:00;98492.56;;;20.15;100.00
71059;BME280;70265;47.576;19.270;2023-07-13T03:33:06;98492.13;;;20.18;100.00
71059;BME280;70265;47.576;19.270;2023-07-13T03:34:08;98496.63;;;20.17;100.00
71059;BME280;70265;47.576;19.270;2023-07-13T03:35:11;98481.47;;;20.18;100.00
71059;BME280;70265;47.576;19.270;2023-07-13T03:36:15;98481.25;;;20.19;100.00
71059;BME280;70265;47.576;19.270;2023-07-13T03:37:19;98472.59;;;20.24;100.00
71059;BME280;70265;47.576;19.270;2023-07-13T03:38:20;98470.91;;;20.29;100.00
71059;BME280;70265;47.576;19.270;2023-07-13T03:39:24;98463.03;;;20.35;100.00
71059;BME280;70265;47.576;19.270;2023-07-13T03:40:25;98475.13;;;20.37;100.00
71059;BME280;70265;47.576;19.270;2023-07-13T03:41:29;98474.44;;;20.42;100.00
71059;BME280;70265;47.576;19.270;2023-07-13T03:42:34;98488.72;;;20.47;100.00
71059;BME280;70265;47.576;19.270;2023-07-13T03:43:38;98482.13;;;20.50;100.00
71059;BME280;70265;47.576;19.270;2023-07-13T03:44:43;98474.13;;;20.50;100.00
71059;BME280;70265;47.576;19.270;2023-07-13T03:45:53;98471.84;;;20.53;100.00
71059;BME280;70265;47.576;19.270;2023-07-13T03:46:54;98465.47;;;20.54;100.00
71059;BME280;70265;47.576;19.270;2023-07-13T03:47:58;98464.19;;;20.57;100.00
71059;BME280;70265;47.576;19.270;2023-07-13T03:48:59;98472.78;;;20.59;100.00
71059;BME280;70265;47.576;19.270;2023-07-13T03:50:10;98468.63;;;20.63;100.00
71059;BME280;70265;47.576;19.270;2023-07-13T03:51:13;98482.09;;;20.68;99.85
71059;BME280;70265;47.576;19.270;2023-07-13T03:52:17;98487.78;;;20.71;98.67
71059;BME280;70265;47.576;19.270;2023-07-13T03:53:18;98489.19;;;20.74;98.81
71059;BME280;70265;47.576;19.270;2023-07-13T03:54:21;98494.28;;;20.75;98.01
71059;BME280;70265;47.576;19.270;2023-07-13T03:55:23;98487.44;;;20.79;97.91
71059;BME280;70265;47.576;19.270;2023-07-13T03:56:26;98502.78;;;20.84;98.46
71059;BME280;70265;47.576;19.270;2023-07-13T03:57:28;98504.16;;;20.87;98.21
71059;BME280;70265;47.576;19.270;2023-07-13T03:58:35;98503.72;;;20.90;98.18
71059;BME280;70265;47.576;19.270;2023-07-13T03:59:37;98514.16;;;20.91;98.04
71059;BME280;70265;47.576;19.270;2023-07-13T04:00:40;98504.88;;;20.94;98.33
71059;BME280;70265;47.576;19.270;2023-07-13T04:01:43;98500.13;;;20.96;97.90
71059;BME280;70265;47.576;19.270;2023-07-13T04:02:47;98504.44;;;20.97;97.92
71059;BME280;70265;47.576;19.270;2023-07-13T04:03:50;98509.75;;;20.97;97.99
71059;BME280;70265;47.576;19.270;2023-07-13T04:04:55;98512.22;;;20.98;98.23
71059;BME280;70265;47.576;19.270;2023-07-13T04:05:56;98515.00;;;21.03;97.83
71059;BME280;70265;47.576;19.270;2023-07-13T04:07:01;98520.13;;;21.05;97.71
71059;BME280;70265;47.576;19.270;2023-07-13T04:08:02;98515.16;;;21.08;97.73
71059;BME280;70265;47.576;19.270;2023-07-13T04:09:06;98515.75;;;21.10;97.84
71059;BME280;70265;47.576;19.270;2023-07-13T04:10:08;98511.00;;;21.12;98.89
71059;BME280;70265;47.576;19.270;2023-07-13T04:11:12;98516.72;;;21.16;98.89
71059;BME280;70265;47.576;19.270;2023-07-13T04:12:13;98516.25;;;21.19;99.83
71059;BME280;70265;47.576;19.270;2023-07-13T04:13:17;98523.78;;;21.22;99.05
71059;BME280;70265;47.576;19.270;2023-07-13T04:14:20;98520.66;;;21.25;99.25
71059;BME280;70265;47.576;19.270;2023-07-13T04:15:24;98524.97;;;21.26;98.95
71059;BME280;70265;47.576;19.270;2023-07-13T04:16:26;98528.78;;;21.30;99.07
71059;BME280;70265;47.576;19.270;2023-07-13T04:17:30;98531.81;;;21.33;96.63
71059;BME280;70265;47.576;19.270;2023-07-13T04:18:31;98540.81;;;21.21;96.12
71059;BME280;70265;47.576;19.270;2023-07-13T04:19:32;98548.25;;;21.19;96.78
71059;BME280;70265;47.576;19.270;2023-07-13T04:20:36;98551.84;;;21.24;96.93
71059;BME280;70265;47.576;19.270;2023-07-13T04:21:37;98554.31;;;21.26;97.15
71059;BME280;70265;47.576;19.270;2023-07-13T04:22:43;98559.41;;;21.27;97.17
71059;BME280;70265;47.576;19.270;2023-07-13T04:23:44;98571.09;;;21.26;97.62
71059;BME280;70265;47.576;19.270;2023-07-13T04:24:48;98581.56;;;21.28;97.87
71059;BME280;70265;47.576;19.270;2023-07-13T04:25:52;98579.94;;;21.27;97.71
71059;BME280;70265;47.576;19.270;2023-07-13T04:26:53;98582.38;;;21.28;97.78
71059;BME280;70265;47.576;19.270;2023-07-13T04:28:00;98584.00;;;21.29;97.80
71059;BME280;70265;47.576;19.270;2023-07-13T04:29:01;98590.97;;;21.30;97.77
71059;BME280;70265;47.576;19.270;2023-07-13T04:30:09;98597.34;;;21.29;98.26
71059;BME280;70265;47.576;19.270;2023-07-13T04:31:10;98600.81;;;21.30;99.14
71059;BME280;70265;47.576;19.270;2023-07-13T04:32:14;98605.13;;;21.31;99.44
71059;BME280;70265;47.576;19.270;2023-07-13T04:33:19;98603.28;;;21.31;99.20
71059;BME280;70265;47.576;19.270;2023-07-13T04:34:22;98603.84;;;21.33;98.86
71059;BME280;70265;47.576;19.270;2023-07-13T04:35:27;98606.28;;;21.35;98.52
71059;BME280;70265;47.576;19.270;2023-07-13T04:36:28;98599.94;;;21.36;98.32
71059;BME280;70265;47.576;19.270;2023-07-13T04:37:32;98603.38;;;21.37;98.36
71059;BME280;70265;47.576;19.270;2023-07-13T04:38:33;98592.97;;;21.35;98.30
71059;BME280;70265;47.576;19.270;2023-07-13T04:39:37;98598.75;;;21.32;98.96
71059;BME280;70265;47.576;19.270;2023-07-13T04:40:38;98587.94;;;21.27;99.54
71059;BME280;70265;47.576;19.270;2023-07-13T04:41:42;98597.56;;;21.28;99.53
71059;BME280;70265;47.576;19.270;2023-07-13T04:42:44;98593.25;;;21.27;99.23
71059;BME280;70265;47.576;19.270;2023-07-13T04:43:47;98603.47;;;21.30;99.28
71059;BME280;70265;47.576;19.270;2023-07-13T04:44:48;98589.56;;;21.28;99.29
71059;BME280;70265;47.576;19.270;2023-07-13T04:45:55;98590.59;;;21.27;100.00
71059;BME280;70265;47.576;19.270;2023-07-13T04:46:57;98591.66;;;21.26;100.00
71059;BME280;70265;47.576;19.270;2023-07-13T04:48:00;98591.66;;;21.26;100.00
71059;BME280;70265;47.576;19.270;2023-07-13T04:49:02;98599.06;;;21.24;100.00
71059;BME280;70265;47.576;19.270;2023-07-13T04:50:07;98595.94;;;21.27;100.00
71059;BME280;70265;47.576;19.270;2023-07-13T04:51:09;98603.94;;;21.27;100.00
71059;BME280;70265;47.576;19.270;2023-07-13T04:52:13;98609.28;;;21.27;100.00
71059;BME280;70265;47.576;19.270;2023-07-13T04:53:14;98603.56;;;21.23;100.00
71059;BME280;70265;47.576;19.270;2023-07-13T04:54:18;98607.88;;;21.24;100.00
71059;BME280;70265;47.576;19.270;2023-07-13T04:55:19;98614.03;;;21.25;100.00
71059;BME280;70265;47.576;19.270;2023-07-13T04:56:23;98615.44;;;21.27;100.00
71059;BME280;70265;47.576;19.270;2023-07-13T04:57:27;98617.72;;;21.24;100.00
71059;BME280;70265;47.576;19.270;2023-07-13T04:58:33;98613.88;;;21.20;100.00
71059;BME280;70265;47.576;19.270;2023-07-13T04:59:34;98615.97;;;21.18;100.00
71059;BME280;70265;47.576;19.270;2023-07-13T05:00:38;98612.03;;;21.20;100.00
71059;BME280;70265;47.576;19.270;2023-07-13T05:01:43;98615.16;;;21.17;100.00
71059;BME280;70265;47.576;19.270;2023-07-13T05:02:46;98621.88;;;21.20;100.00
71059;BME280;70265;47.576;19.270;2023-07-13T05:03:47;98622.94;;;21.19;100.00
71059;BME280;70265;47.576;19.270;2023-07-13T05:04:51;98624.56;;;21.20;100.00
71059;BME280;70265;47.576;19.270;2023-07-13T05:05:56;98631.16;;;21.17;100.00
71059;BME280;70265;47.576;19.270;2023-07-13T05:07:00;98639.84;;;21.13;100.00
71059;BME280;70265;47.576;19.270;2023-07-13T05:08:01;98645.53;;;21.16;100.00
71059;BME280;70265;47.576;19.270;2023-07-13T05:09:05;98649.03;;;21.17;100.00
71059;BME280;70265;47.576;19.270;2023-07-13T05:10:09;98657.84;;;21.17;100.00
71059;BME280;70265;47.576;19.270;2023-07-13T05:11:13;98655.84;;;21.13;100.00
71059;BME280;70265;47.576;19.270;2023-07-13T05:12:14;98662.81;;;21.14;100.00
71059;BME280;70265;47.576;19.270;2023-07-13T05:13:18;98659.84;;;21.04;100.00
71059;BME280;70265;47.576;19.270;2023-07-13T05:14:19;98671.97;;;21.00;100.00
71059;BME280;70265;47.576;19.270;2023-07-13T05:15:23;98674.06;;;20.98;100.00
71059;BME280;70265;47.576;19.270;2023-07-13T05:16:25;98677.75;;;20.97;100.00
71059;BME280;70265;47.576;19.270;2023-07-13T05:17:34;98680.44;;;20.97;100.00
71059;BME280;70265;47.576;19.270;2023-07-13T05:18:36;98683.09;;;20.97;100.00
71059;BME280;70265;47.576;19.270;2023-07-13T05:19:39;98681.47;;;20.96;100.00
71059;BME280;70265;47.576;19.270;2023-07-13T05:20:41;98690.53;;;20.95;100.00
71059;BME280;70265;47.576;19.270;2023-07-13T05:21:44;98700.44;;;20.88;100.00
71059;BME280;70265;47.576;19.270;2023-07-13T05:22:46;98707.41;;;20.89;100.00
71059;BME280;70265;47.576;19.270;2023-07-13T05:23:51;98711.69;;;20.90;100.00
71059;BME280;70265;47.576;19.270;2023-07-13T05:24:52;98720.75;;;20.89;100.00
71059;BME280;70265;47.576;19.270;2023-07-13T05:25:56;98731.78;;;20.92;100.00
71059;BME280;70265;47.576;19.270;2023-07-13T05:26:57;98762.44;;;21.01;100.00
71059;BME280;70265;47.576;19.270;2023-07-13T05:28:01;98764.88;;;21.03;100.00
71059;BME280;70265;47.576;19.270;2023-07-13T05:29:02;98772.88;;;21.03;100.00
71059;BME280;70265;47.576;19.270;2023-07-13T05:30:10;98765.38;;;20.93;100.00
71059;BME280;70265;47.576;19.270;2023-07-13T05:31:12;98750.88;;;20.89;100.00